Terminal Aerodrome Forecast
Issued by NWS

Home | Current Version | Previous Version | Graphics & Text | Print | Product List | Glossary On
Versions: 1 2 3 4 5 6 7 8 9 10 11 12 13 14 15 16 17 18 19 20 21 22 23 24
000
FTUS43 KGRB 181700
TAFCWA
TAF
KCWA 181723Z 1818/1918 13006KT P6SM OVC012
     FM190400 13005KT P6SM SCT020
     FM190900 17007KT 5SM BR SCT250
     FM191400 19010G16KT P6SM BKN250=

USA.gov is the U.S. government's official web portal to all federal, state and local government web resources and services.